sensor_id;sensor_type;location;lat;lon;timestamp;temperature;humidity
1307;DHT22;646;48.696;9.114;2022-10-04T00:01:11;5.90;99.90
1307;DHT22;646;48.696;9.114;2022-10-04T00:03:46;5.80;99.90
1307;DHT22;646;48.696;9.114;2022-10-04T00:06:19;5.80;99.90
1307;DHT22;646;48.696;9.114;2022-10-04T00:08:59;5.80;99.90
1307;DHT22;646;48.696;9.114;2022-10-04T00:11:33;5.70;99.90
1307;DHT22;646;48.696;9.114;2022-10-04T00:14:05;5.80;99.90
1307;DHT22;646;48.696;9.114;2022-10-04T00:16:35;5.80;99.90
1307;DHT22;646;48.696;9.114;2022-10-04T00:24:29;5.90;99.90
1307;DHT22;646;48.696;9.114;2022-10-04T00:29:32;5.20;99.90
1307;DHT22;646;48.696;9.114;2022-10-04T00:37:01;5.80;99.90
1307;DHT22;646;48.696;9.114;2022-10-04T00:47:11;5.50;99.90
1307;DHT22;646;48.696;9.114;2022-10-04T00:49:39;5.50;99.90
1307;DHT22;646;48.696;9.114;2022-10-04T00:52:13;5.60;99.90
1307;DHT22;646;48.696;9.114;2022-10-04T00:54:43;5.70;99.90
1307;DHT22;646;48.696;9.114;2022-10-04T00:57:34;5.60;99.90
1307;DHT22;646;48.696;9.114;2022-10-04T01:00:05;5.60;99.90
1307;DHT22;646;48.696;9.114;2022-10-04T01:03:22;5.50;99.90
1307;DHT22;646;48.696;9.114;2022-10-04T01:05:32;5.50;99.90
1307;DHT22;646;48.696;9.114;2022-10-04T01:10:45;5.40;99.90
1307;DHT22;646;48.696;9.114;2022-10-04T01:13:16;5.60;99.90
1307;DHT22;646;48.696;9.114;2022-10-04T01:29:04;5.00;99.90
1307;DHT22;646;48.696;9.114;2022-10-04T01:31:31;5.20;99.90
1307;DHT22;646;48.696;9.114;2022-10-04T01:33:59;4.80;99.90
1307;DHT22;646;48.696;9.114;2022-10-04T01:36:25;5.00;99.90
1307;DHT22;646;48.696;9.114;2022-10-04T01:38:52;4.50;99.90
1307;DHT22;646;48.696;9.114;2022-10-04T01:41:23;5.30;99.90
1307;DHT22;646;48.696;9.114;2022-10-04T01:43:52;5.40;99.90
1307;DHT22;646;48.696;9.114;2022-10-04T01:46:24;5.20;99.90
1307;DHT22;646;48.696;9.114;2022-10-04T01:48:54;5.20;99.90
1307;DHT22;646;48.696;9.114;2022-10-04T01:52:01;5.20;99.90
1307;DHT22;646;48.696;9.114;2022-10-04T01:54:34;5.30;99.90
1307;DHT22;646;48.696;9.114;2022-10-04T01:57:12;4.50;99.90
1307;DHT22;646;48.696;9.114;2022-10-04T01:59:51;5.40;99.90
1307;DHT22;646;48.696;9.114;2022-10-04T02:02:51;5.00;99.90
1307;DHT22;646;48.696;9.114;2022-10-04T02:05:29;5.00;99.90
1307;DHT22;646;48.696;9.114;2022-10-04T02:07:56;5.30;99.90
1307;DHT22;646;48.696;9.114;2022-10-04T02:10:26;4.90;99.90
1307;DHT22;646;48.696;9.114;2022-10-04T02:12:52;4.80;99.90
1307;DHT22;646;48.696;9.114;2022-10-04T02:15:20;4.30;99.90
1307;DHT22;646;48.696;9.114;2022-10-04T02:17:47;5.00;99.90
1307;DHT22;646;48.696;9.114;2022-10-04T02:20:19;4.90;99.90
1307;DHT22;646;48.696;9.114;2022-10-04T02:22:49;4.80;99.90
1307;DHT22;646;48.696;9.114;2022-10-04T02:25:18;4.40;99.90
1307;DHT22;646;48.696;9.114;2022-10-04T02:27:44;4.80;99.90
1307;DHT22;646;48.696;9.114;2022-10-04T02:30:11;4.90;99.90
1307;DHT22;646;48.696;9.114;2022-10-04T02:32:39;5.00;99.90
1307;DHT22;646;48.696;9.114;2022-10-04T02:35:33;4.80;99.90
1307;DHT22;646;48.696;9.114;2022-10-04T02:38:24;4.90;99.90
1307;DHT22;646;48.696;9.114;2022-10-04T02:40:55;5.00;99.90
1307;DHT22;646;48.696;9.114;2022-10-04T02:43:26;4.70;99.90
1307;DHT22;646;48.696;9.114;2022-10-04T02:46:13;4.80;99.90
1307;DHT22;646;48.696;9.114;2022-10-04T02:48:52;4.80;99.90
1307;DHT22;646;48.696;9.114;2022-10-04T02:51:32;4.80;99.90
1307;DHT22;646;48.696;9.114;2022-10-04T02:54:06;4.90;99.90
1307;DHT22;646;48.696;9.114;2022-10-04T02:56:36;5.00;99.90
1307;DHT22;646;48.696;9.114;2022-10-04T02:59:04;4.50;99.90
1307;DHT22;646;48.696;9.114;2022-10-04T03:01:52;4.80;99.90
1307;DHT22;646;48.696;9.114;2022-10-04T03:04:22;4.90;99.90
1307;DHT22;646;48.696;9.114;2022-10-04T03:06:49;4.80;99.90
1307;DHT22;646;48.696;9.114;2022-10-04T03:09:16;5.00;99.90
1307;DHT22;646;48.696;9.114;2022-10-04T03:11:43;4.60;99.90
1307;DHT22;646;48.696;9.114;2022-10-04T03:14:16;4.70;99.90
1307;DHT22;646;48.696;9.114;2022-10-04T03:16:44;4.70;99.90
1307;DHT22;646;48.696;9.114;2022-10-04T03:19:13;4.70;99.90
1307;DHT22;646;48.696;9.114;2022-10-04T03:21:42;4.70;99.90
1307;DHT22;646;48.696;9.114;2022-10-04T03:24:10;4.70;99.90
1307;DHT22;646;48.696;9.114;2022-10-04T03:26:54;4.30;99.90
1307;DHT22;646;48.696;9.114;2022-10-04T03:29:23;4.80;99.90
1307;DHT22;646;48.696;9.114;2022-10-04T03:31:53;4.80;99.90
1307;DHT22;646;48.696;9.114;2022-10-04T03:34:24;4.70;99.90
1307;DHT22;646;48.696;9.114;2022-10-04T03:36:53;4.70;99.90
1307;DHT22;646;48.696;9.114;2022-10-04T03:39:40;4.20;99.90
1307;DHT22;646;48.696;9.114;2022-10-04T03:42:12;4.70;99.90
1307;DHT22;646;48.696;9.114;2022-10-04T03:44:39;4.80;99.90
1307;DHT22;646;48.696;9.114;2022-10-04T03:47:09;4.80;99.90
1307;DHT22;646;48.696;9.114;2022-10-04T03:49:36;4.80;99.90
1307;DHT22;646;48.696;9.114;2022-10-04T03:52:03;4.70;99.90
1307;DHT22;646;48.696;9.114;2022-10-04T03:54:30;4.40;99.90
1307;DHT22;646;48.696;9.114;2022-10-04T03:56:58;4.90;99.90
1307;DHT22;646;48.696;9.114;2022-10-04T03:59:26;4.90;99.90
1307;DHT22;646;48.696;9.114;2022-10-04T04:07:29;4.90;99.90
1307;DHT22;646;48.696;9.114;2022-10-04T04:10:17;4.90;99.90
1307;DHT22;646;48.696;9.114;2022-10-04T04:15:16;5.00;99.90
1307;DHT22;646;48.696;9.114;2022-10-04T04:17:45;4.90;99.90
1307;DHT22;646;48.696;9.114;2022-10-04T04:20:24;4.90;99.90
1307;DHT22;646;48.696;9.114;2022-10-04T04:23:11;4.80;99.90
1307;DHT22;646;48.696;9.114;2022-10-04T04:25:47;4.80;99.90
1307;DHT22;646;48.696;9.114;2022-10-04T04:28:29;4.90;99.90
1307;DHT22;646;48.696;9.114;2022-10-04T04:31:12;5.00;99.90
1307;DHT22;646;48.696;9.114;2022-10-04T04:34:03;4.80;99.90
1307;DHT22;646;48.696;9.114;2022-10-04T04:36:37;4.80;99.90
1307;DHT22;646;48.696;9.114;2022-10-04T04:41:51;4.80;99.90
1307;DHT22;646;48.696;9.114;2022-10-04T04:44:17;5.10;99.90
1307;DHT22;646;48.696;9.114;2022-10-04T04:46:45;4.70;99.90
1307;DHT22;646;48.696;9.114;2022-10-04T04:49:11;4.90;99.90
1307;DHT22;646;48.696;9.114;2022-10-04T04:51:46;4.30;99.90
1307;DHT22;646;48.696;9.114;2022-10-04T04:54:13;4.70;99.90
1307;DHT22;646;48.696;9.114;2022-10-04T04:56:41;4.80;99.90
1307;DHT22;646;48.696;9.114;2022-10-04T04:59:07;4.80;99.90
1307;DHT22;646;48.696;9.114;2022-10-04T05:01:44;4.60;99.90
1307;DHT22;646;48.696;9.114;2022-10-04T05:07:02;4.50;99.90
1307;DHT22;646;48.696;9.114;2022-10-04T05:09:33;4.70;99.90
1307;DHT22;646;48.696;9.114;2022-10-04T05:12:09;4.60;99.90
1307;DHT22;646;48.696;9.114;2022-10-04T05:14:40;4.60;99.90
1307;DHT22;646;48.696;9.114;2022-10-04T05:17:26;4.60;99.90
1307;DHT22;646;48.696;9.114;2022-10-04T05:19:57;4.70;99.90
1307;DHT22;646;48.696;9.114;2022-10-04T05:22:24;4.40;99.90
1307;DHT22;646;48.696;9.114;2022-10-04T05:24:53;4.60;99.90
1307;DHT22;646;48.696;9.114;2022-10-04T05:27:28;4.60;99.90
1307;DHT22;646;48.696;9.114;2022-10-04T05:30:01;4.60;99.90
1307;DHT22;646;48.696;9.114;2022-10-04T05:32:42;4.20;99.90
1307;DHT22;646;48.696;9.114;2022-10-04T05:35:15;4.80;99.90
1307;DHT22;646;48.696;9.114;2022-10-04T05:48:59;5.10;99.90
1307;DHT22;646;48.696;9.114;2022-10-04T05:51:33;5.20;99.90
1307;DHT22;646;48.696;9.114;2022-10-04T05:54:03;4.60;99.90
1307;DHT22;646;48.696;9.114;2022-10-04T05:56:41;5.10;99.90
1307;DHT22;646;48.696;9.114;2022-10-04T05:59:43;5.10;99.90
1307;DHT22;646;48.696;9.114;2022-10-04T06:05:38;5.20;99.90
1307;DHT22;646;48.696;9.114;2022-10-04T06:13:25;5.50;99.90
1307;DHT22;646;48.696;9.114;2022-10-04T06:16:23;5.40;99.90
1307;DHT22;646;48.696;9.114;2022-10-04T06:24:26;5.90;99.90
1307;DHT22;646;48.696;9.114;2022-10-04T06:27:01;5.80;99.90
1307;DHT22;646;48.696;9.114;2022-10-04T06:29:32;6.10;99.90
1307;DHT22;646;48.696;9.114;2022-10-04T06:37:52;6.30;99.90
1307;DHT22;646;48.696;9.114;2022-10-04T06:40:43;6.60;99.90
1307;DHT22;646;48.696;9.114;2022-10-04T06:46:21;7.00;99.90
1307;DHT22;646;48.696;9.114;2022-10-04T06:49:30;7.20;99.90
1307;DHT22;646;48.696;9.114;2022-10-04T06:57:52;7.90;99.90
1307;DHT22;646;48.696;9.114;2022-10-04T07:00:25;7.90;99.90
1307;DHT22;646;48.696;9.114;2022-10-04T07:03:16;8.30;99.90
1307;DHT22;646;48.696;9.114;2022-10-04T07:08:10;8.00;99.90
1307;DHT22;646;48.696;9.114;2022-10-04T07:10:47;8.70;99.90
1307;DHT22;646;48.696;9.114;2022-10-04T07:15:56;9.00;99.90
1307;DHT22;646;48.696;9.114;2022-10-04T07:18:30;9.20;99.90
1307;DHT22;646;48.696;9.114;2022-10-04T07:21:05;8.80;99.90
1307;DHT22;646;48.696;9.114;2022-10-04T07:23:43;9.60;99.90
1307;DHT22;646;48.696;9.114;2022-10-04T07:26:49;9.50;99.90
1307;DHT22;646;48.696;9.114;2022-10-04T07:29:24;9.60;99.90
1307;DHT22;646;48.696;9.114;2022-10-04T07:34:30;9.80;99.90
1307;DHT22;646;48.696;9.114;2022-10-04T07:36:58;10.40;99.90
1307;DHT22;646;48.696;9.114;2022-10-04T07:47:24;10.30;99.90
1307;DHT22;646;48.696;9.114;2022-10-04T07:49:53;10.70;99.90
1307;DHT22;646;48.696;9.114;2022-10-04T07:55:25;10.80;99.90
1307;DHT22;646;48.696;9.114;2022-10-04T08:00:38;11.40;99.90
1307;DHT22;646;48.696;9.114;2022-10-04T08:11:20;12.20;99.90
1307;DHT22;646;48.696;9.114;2022-10-04T08:16:57;13.00;99.90
1307;DHT22;646;48.696;9.114;2022-10-04T08:19:33;12.70;99.90
1307;DHT22;646;48.696;9.114;2022-10-04T08:22:12;13.10;99.90
1307;DHT22;646;48.696;9.114;2022-10-04T08:46:00;15.60;99.90
1307;DHT22;646;48.696;9.114;2022-10-04T09:17:36;22.90;99.90
1307;DHT22;646;48.696;9.114;2022-10-04T09:25:47;25.20;95.90
1307;DHT22;646;48.696;9.114;2022-10-04T09:33:38;27.30;80.30
1307;DHT22;646;48.696;9.114;2022-10-04T09:36:20;27.60;73.50
1307;DHT22;646;48.696;9.114;2022-10-04T09:39:12;27.90;69.30
1307;DHT22;646;48.696;9.114;2022-10-04T09:47:29;27.60;58.80
1307;DHT22;646;48.696;9.114;2022-10-04T09:56:18;27.50;56.30
1307;DHT22;646;48.696;9.114;2022-10-04T09:59:01;28.60;55.80
1307;DHT22;646;48.696;9.114;2022-10-04T10:02:02;29.80;55.00
1307;DHT22;646;48.696;9.114;2022-10-04T10:04:42;30.70;47.20
1307;DHT22;646;48.696;9.114;2022-10-04T10:13:31;31.20;38.60
1307;DHT22;646;48.696;9.114;2022-10-04T10:40:51;33.30;35.20
1307;DHT22;646;48.696;9.114;2022-10-04T10:51:58;36.10;30.70
1307;DHT22;646;48.696;9.114;2022-10-04T11:00:18;37.60;29.20
1307;DHT22;646;48.696;9.114;2022-10-04T11:03:08;37.90;26.90
1307;DHT22;646;48.696;9.114;2022-10-04T11:06:02;38.00;26.30
1307;DHT22;646;48.696;9.114;2022-10-04T11:11:48;38.20;27.60
1307;DHT22;646;48.696;9.114;2022-10-04T11:31:41;37.70;26.90
1307;DHT22;646;48.696;9.114;2022-10-04T11:40:49;39.70;26.60
1307;DHT22;646;48.696;9.114;2022-10-04T11:43:46;39.10;24.80
1307;DHT22;646;48.696;9.114;2022-10-04T12:01:14;35.10;29.20
1307;DHT22;646;48.696;9.114;2022-10-04T12:10:14;35.10;29.50
1307;DHT22;646;48.696;9.114;2022-10-04T12:16:03;35.10;28.90
1307;DHT22;646;48.696;9.114;2022-10-04T12:21:38;36.10;28.90
1307;DHT22;646;48.696;9.114;2022-10-04T12:27:37;35.80;28.90
1307;DHT22;646;48.696;9.114;2022-10-04T12:30:27;36.50;27.50
1307;DHT22;646;48.696;9.114;2022-10-04T12:33:25;37.10;28.20
1307;DHT22;646;48.696;9.114;2022-10-04T12:36:02;37.80;27.60
1307;DHT22;646;48.696;9.114;2022-10-04T13:11:03;42.20;22.20
1307;DHT22;646;48.696;9.114;2022-10-04T13:19:31;42.60;21.40
1307;DHT22;646;48.696;9.114;2022-10-04T13:22:27;42.80;21.90
1307;DHT22;646;48.696;9.114;2022-10-04T13:25:13;43.10;21.20
1307;DHT22;646;48.696;9.114;2022-10-04T13:27:50;43.10;19.30
1307;DHT22;646;48.696;9.114;2022-10-04T13:30:42;42.80;20.10
1307;DHT22;646;48.696;9.114;2022-10-04T13:36:07;42.40;21.10
1307;DHT22;646;48.696;9.114;2022-10-04T13:38:57;42.10;21.70
1307;DHT22;646;48.696;9.114;2022-10-04T13:41:43;42.10;22.10
1307;DHT22;646;48.696;9.114;2022-10-04T13:47:24;41.90;21.10
1307;DHT22;646;48.696;9.114;2022-10-04T13:50:25;41.90;22.40
1307;DHT22;646;48.696;9.114;2022-10-04T13:56:03;41.80;21.40
1307;DHT22;646;48.696;9.114;2022-10-04T13:58:59;41.80;22.40
1307;DHT22;646;48.696;9.114;2022-10-04T14:02:05;41.80;22.50
1307;DHT22;646;48.696;9.114;2022-10-04T14:08:19;41.50;21.90
1307;DHT22;646;48.696;9.114;2022-10-04T14:11:06;41.30;22.00
1307;DHT22;646;48.696;9.114;2022-10-04T14:24:51;40.40;22.40
1307;DHT22;646;48.696;9.114;2022-10-04T14:30:38;39.90;23.30
1307;DHT22;646;48.696;9.114;2022-10-04T14:35:40;39.00;23.50
1307;DHT22;646;48.696;9.114;2022-10-04T14:38:24;38.70;24.00
1307;DHT22;646;48.696;9.114;2022-10-04T14:44:09;37.80;23.90
1307;DHT22;646;48.696;9.114;2022-10-04T14:52:49;36.60;25.40
1307;DHT22;646;48.696;9.114;2022-10-04T15:01:16;35.30;26.70
1307;DHT22;646;48.696;9.114;2022-10-04T15:06:50;32.80;28.90
1307;DHT22;646;48.696;9.114;2022-10-04T15:17:53;26.60;40.30
1307;DHT22;646;48.696;9.114;2022-10-04T15:20:24;25.50;42.70
1307;DHT22;646;48.696;9.114;2022-10-04T15:22:54;24.30;44.10
1307;DHT22;646;48.696;9.114;2022-10-04T15:25:41;23.20;45.80
1307;DHT22;646;48.696;9.114;2022-10-04T15:31:11;22.30;50.70
1307;DHT22;646;48.696;9.114;2022-10-04T15:47:07;20.10;57.50
1307;DHT22;646;48.696;9.114;2022-10-04T15:55:30;19.40;59.40
1307;DHT22;646;48.696;9.114;2022-10-04T16:03:52;18.90;62.20
1307;DHT22;646;48.696;9.114;2022-10-04T16:06:21;18.30;62.50
1307;DHT22;646;48.696;9.114;2022-10-04T16:20:12;18.30;67.00
1307;DHT22;646;48.696;9.114;2022-10-04T16:23:20;17.80;67.30
1307;DHT22;646;48.696;9.114;2022-10-04T16:25:46;17.90;68.60
1307;DHT22;646;48.696;9.114;2022-10-04T16:31:12;17.80;72.00
1307;DHT22;646;48.696;9.114;2022-10-04T16:36:22;17.20;74.50
1307;DHT22;646;48.696;9.114;2022-10-04T16:38:54;16.60;75.70
1307;DHT22;646;48.696;9.114;2022-10-04T16:41:46;17.00;78.50
1307;DHT22;646;48.696;9.114;2022-10-04T16:44:37;16.80;80.80
1307;DHT22;646;48.696;9.114;2022-10-04T16:49:53;16.00;86.10
1307;DHT22;646;48.696;9.114;2022-10-04T16:52:25;16.10;88.80
1307;DHT22;646;48.696;9.114;2022-10-04T16:57:35;16.00;92.40
1307;DHT22;646;48.696;9.114;2022-10-04T17:00:33;15.90;93.40
1307;DHT22;646;48.696;9.114;2022-10-04T17:03:19;15.90;95.50
1307;DHT22;646;48.696;9.114;2022-10-04T17:06:01;15.30;96.40
1307;DHT22;646;48.696;9.114;2022-10-04T17:08:46;15.50;97.30
1307;DHT22;646;48.696;9.114;2022-10-04T17:11:29;15.00;98.40
1307;DHT22;646;48.696;9.114;2022-10-04T17:17:22;14.70;99.90
1307;DHT22;646;48.696;9.114;2022-10-04T17:20:02;14.30;99.90
1307;DHT22;646;48.696;9.114;2022-10-04T17:22:48;14.70;99.90
1307;DHT22;646;48.696;9.114;2022-10-04T17:28:33;14.40;99.90
1307;DHT22;646;48.696;9.114;2022-10-04T17:36:27;13.50;99.90
1307;DHT22;646;48.696;9.114;2022-10-04T17:39:18;14.00;99.90
1307;DHT22;646;48.696;9.114;2022-10-04T17:41:57;13.80;99.90
1307;DHT22;646;48.696;9.114;2022-10-04T17:44:40;13.60;99.90
1307;DHT22;646;48.696;9.114;2022-10-04T17:47:51;13.80;99.90
1307;DHT22;646;48.696;9.114;2022-10-04T17:54:11;13.40;99.90
1307;DHT22;646;48.696;9.114;2022-10-04T17:59:30;13.20;99.90
1307;DHT22;646;48.696;9.114;2022-10-04T18:04:56;13.20;99.90
1307;DHT22;646;48.696;9.114;2022-10-04T18:07:40;12.70;99.90
1307;DHT22;646;48.696;9.114;2022-10-04T18:10:26;13.10;99.90
1307;DHT22;646;48.696;9.114;2022-10-04T18:15:47;12.70;99.90
1307;DHT22;646;48.696;9.114;2022-10-04T18:18:16;12.80;99.90
1307;DHT22;646;48.696;9.114;2022-10-04T18:23:23;12.60;99.90
1307;DHT22;646;48.696;9.114;2022-10-04T18:26:09;12.40;99.90
1307;DHT22;646;48.696;9.114;2022-10-04T18:28:35;12.50;99.90
1307;DHT22;646;48.696;9.114;2022-10-04T18:33:49;12.30;99.90
1307;DHT22;646;48.696;9.114;2022-10-04T18:36:18;12.30;99.90
1307;DHT22;646;48.696;9.114;2022-10-04T18:41:33;12.30;99.90
1307;DHT22;646;48.696;9.114;2022-10-04T18:44:23;12.00;99.90
1307;DHT22;646;48.696;9.114;2022-10-04T18:46:55;12.30;99.90
1307;DHT22;646;48.696;9.114;2022-10-04T18:49:23;11.60;99.90
1307;DHT22;646;48.696;9.114;2022-10-04T18:54:48;11.80;99.90
1307;DHT22;646;48.696;9.114;2022-10-04T18:57:39;11.90;99.90
1307;DHT22;646;48.696;9.114;2022-10-04T19:00:34;12.00;99.90
1307;DHT22;646;48.696;9.114;2022-10-04T19:09:15;11.70;99.90
1307;DHT22;646;48.696;9.114;2022-10-04T19:12:04;11.80;99.90
1307;DHT22;646;48.696;9.114;2022-10-04T19:15:06;11.60;99.90
1307;DHT22;646;48.696;9.114;2022-10-04T19:17:54;11.50;99.90
1307;DHT22;646;48.696;9.114;2022-10-04T19:26:17;11.50;99.90
1307;DHT22;646;48.696;9.114;2022-10-04T19:28:52;11.50;99.90
1307;DHT22;646;48.696;9.114;2022-10-04T19:31:33;11.60;99.90
1307;DHT22;646;48.696;9.114;2022-10-04T19:34:32;11.30;99.90
1307;DHT22;646;48.696;9.114;2022-10-04T19:37:09;11.30;99.90
1307;DHT22;646;48.696;9.114;2022-10-04T19:45:29;11.20;99.90
1307;DHT22;646;48.696;9.114;2022-10-04T19:48:00;11.10;99.90
1307;DHT22;646;48.696;9.114;2022-10-04T19:50:31;11.20;99.90
1307;DHT22;646;48.696;9.114;2022-10-04T19:53:24;11.20;99.90
1307;DHT22;646;48.696;9.114;2022-10-04T19:58:52;10.70;99.90
1307;DHT22;646;48.696;9.114;2022-10-04T20:01:20;10.90;99.90
1307;DHT22;646;48.696;9.114;2022-10-04T20:03:48;10.40;99.90
1307;DHT22;646;48.696;9.114;2022-10-04T20:06:35;10.90;99.90
1307;DHT22;646;48.696;9.114;2022-10-04T20:11:49;10.50;99.90
1307;DHT22;646;48.696;9.114;2022-10-04T20:24:51;10.10;99.90
1307;DHT22;646;48.696;9.114;2022-10-04T20:29:57;9.90;99.90
1307;DHT22;646;48.696;9.114;2022-10-04T20:34:52;10.40;99.90
1307;DHT22;646;48.696;9.114;2022-10-04T20:37:18;9.70;99.90
1307;DHT22;646;48.696;9.114;2022-10-04T20:42:31;9.70;99.90
1307;DHT22;646;48.696;9.114;2022-10-04T20:47:38;10.30;99.90
1307;DHT22;646;48.696;9.114;2022-10-04T20:50:16;9.80;99.90
1307;DHT22;646;48.696;9.114;2022-10-04T20:52:45;9.70;99.90
1307;DHT22;646;48.696;9.114;2022-10-04T20:55:20;10.10;99.90
1307;DHT22;646;48.696;9.114;2022-10-04T20:57:46;9.90;99.90
1307;DHT22;646;48.696;9.114;2022-10-04T21:00:19;9.60;99.90
1307;DHT22;646;48.696;9.114;2022-10-04T21:02:45;10.20;99.90
1307;DHT22;646;48.696;9.114;2022-10-04T21:05:13;10.20;99.90
1307;DHT22;646;48.696;9.114;2022-10-04T21:07:39;10.20;99.90
1307;DHT22;646;48.696;9.114;2022-10-04T21:10:18;10.30;99.90
1307;DHT22;646;48.696;9.114;2022-10-04T21:12:44;10.10;99.90
1307;DHT22;646;48.696;9.114;2022-10-04T21:17:43;10.20;99.90
1307;DHT22;646;48.696;9.114;2022-10-04T21:20:47;9.60;99.90
1307;DHT22;646;48.696;9.114;2022-10-04T21:23:25;10.10;99.90
1307;DHT22;646;48.696;9.114;2022-10-04T21:28:52;10.00;99.90
1307;DHT22;646;48.696;9.114;2022-10-04T21:31:18;10.20;99.90
1307;DHT22;646;48.696;9.114;2022-10-04T21:33:43;9.80;99.90
1307;DHT22;646;48.696;9.114;2022-10-04T21:36:09;10.10;99.90
1307;DHT22;646;48.696;9.114;2022-10-04T21:38:35;10.30;99.90
1307;DHT22;646;48.696;9.114;2022-10-04T21:41:01;10.10;99.90
1307;DHT22;646;48.696;9.114;2022-10-04T21:43:27;10.30;99.90
1307;DHT22;646;48.696;9.114;2022-10-04T21:45:53;10.20;99.90
1307;DHT22;646;48.696;9.114;2022-10-04T21:48:18;9.40;99.90
1307;DHT22;646;48.696;9.114;2022-10-04T21:50:50;9.80;99.90
1307;DHT22;646;48.696;9.114;2022-10-04T21:53:17;9.70;99.90
1307;DHT22;646;48.696;9.114;2022-10-04T21:55:42;9.90;99.90
1307;DHT22;646;48.696;9.114;2022-10-04T21:58:08;9.70;99.90
1307;DHT22;646;48.696;9.114;2022-10-04T22:00:33;9.80;99.90
1307;DHT22;646;48.696;9.114;2022-10-04T22:02:59;9.80;99.90
1307;DHT22;646;48.696;9.114;2022-10-04T22:05:25;9.70;99.90
1307;DHT22;646;48.696;9.114;2022-10-04T22:07:50;9.60;99.90
1307;DHT22;646;48.696;9.114;2022-10-04T22:10:16;9.00;99.90
1307;DHT22;646;48.696;9.114;2022-10-04T22:12:42;9.80;99.90
1307;DHT22;646;48.696;9.114;2022-10-04T22:15:08;9.60;99.90
1307;DHT22;646;48.696;9.114;2022-10-04T22:17:33;9.50;99.90
1307;DHT22;646;48.696;9.114;2022-10-04T22:19:59;9.70;99.90
1307;DHT22;646;48.696;9.114;2022-10-04T22:22:24;9.50;99.90
1307;DHT22;646;48.696;9.114;2022-10-04T22:24:50;8.70;99.90
1307;DHT22;646;48.696;9.114;2022-10-04T22:27:18;9.30;99.90
1307;DHT22;646;48.696;9.114;2022-10-04T22:29:43;8.90;99.90
1307;DHT22;646;48.696;9.114;2022-10-04T22:32:27;9.10;99.90
1307;DHT22;646;48.696;9.114;2022-10-04T22:34:59;9.20;99.90
1307;DHT22;646;48.696;9.114;2022-10-04T22:37:26;9.30;99.90
1307;DHT22;646;48.696;9.114;2022-10-04T22:39:54;8.70;99.90
1307;DHT22;646;48.696;9.114;2022-10-04T22:42:23;9.00;99.90
1307;DHT22;646;48.696;9.114;2022-10-04T22:44:51;9.30;99.90
1307;DHT22;646;48.696;9.114;2022-10-04T22:47:17;9.20;99.90
1307;DHT22;646;48.696;9.114;2022-10-04T22:49:44;9.00;99.90
1307;DHT22;646;48.696;9.114;2022-10-04T22:52:21;9.10;99.90
1307;DHT22;646;48.696;9.114;2022-10-04T22:54:52;9.30;99.90
1307;DHT22;646;48.696;9.114;2022-10-04T22:57:18;9.30;99.90
1307;DHT22;646;48.696;9.114;2022-10-04T22:59:46;9.10;99.90
1307;DHT22;646;48.696;9.114;2022-10-04T23:02:21;9.20;99.90
1307;DHT22;646;48.696;9.114;2022-10-04T23:04:53;9.00;99.90
1307;DHT22;646;48.696;9.114;2022-10-04T23:07:19;8.50;99.90
1307;DHT22;646;48.696;9.114;2022-10-04T23:09:45;9.20;99.90
1307;DHT22;646;48.696;9.114;2022-10-04T23:12:11;8.50;99.90
1307;DHT22;646;48.696;9.114;2022-10-04T23:14:37;8.50;99.90
1307;DHT22;646;48.696;9.114;2022-10-04T23:17:21;9.40;99.90
1307;DHT22;646;48.696;9.114;2022-10-04T23:19:48;9.00;99.90
1307;DHT22;646;48.696;9.114;2022-10-04T23:22:16;8.90;99.90
1307;DHT22;646;48.696;9.114;2022-10-04T23:24:42;9.00;99.90
1307;DHT22;646;48.696;9.114;2022-10-04T23:27:15;8.40;99.90
1307;DHT22;646;48.696;9.114;2022-10-04T23:29:41;8.90;99.90
1307;DHT22;646;48.696;9.114;2022-10-04T23:32:15;8.70;99.90
1307;DHT22;646;48.696;9.114;2022-10-04T23:34:46;9.00;99.90
1307;DHT22;646;48.696;9.114;2022-10-04T23:37:18;8.80;99.90
1307;DHT22;646;48.696;9.114;2022-10-04T23:39:45;8.80;99.90
1307;DHT22;646;48.696;9.114;2022-10-04T23:42:28;8.80;99.90
1307;DHT22;646;48.696;9.114;2022-10-04T23:44:57;8.50;99.90
1307;DHT22;646;48.696;9.114;2022-10-04T23:47:32;8.70;99.90
1307;DHT22;646;48.696;9.114;2022-10-04T23:49:58;8.60;99.90
1307;DHT22;646;48.696;9.114;2022-10-04T23:52:35;8.60;99.90
1307;DHT22;646;48.696;9.114;2022-10-04T23:55:01;8.80;99.90
1307;DHT22;646;48.696;9.114;2022-10-04T23:57:28;8.60;99.90
1307;DHT22;646;48.696;9.114;2022-10-04T23:59:57;8.60;99.90
